createdAt,value
2022-09-17T00:00:52.664Z,9.218
2022-09-17T00:01:52.769Z,9.135
2022-09-17T00:02:52.787Z,9.188
2022-09-17T00:03:52.772Z,9.12
2022-09-17T00:04:52.809Z,9.105
2022-09-17T00:05:52.849Z,9.12
2022-09-17T00:06:52.873Z,9.135
2022-09-17T00:07:52.908Z,9.135
2022-09-17T00:08:52.942Z,9.203
2022-09-17T00:09:52.981Z,9.233
2022-09-17T00:10:53.016Z,9.203
2022-09-17T00:11:53.042Z,9.12
2022-09-17T00:12:53.080Z,9.12
2022-09-17T00:13:53.125Z,9.135
2022-09-17T00:14:53.150Z,9.203
2022-09-17T00:15:53.240Z,9.105
2022-09-17T00:16:53.221Z,9.105
2022-09-17T00:17:53.264Z,9.173
2022-09-17T00:18:53.295Z,9.12
2022-09-17T00:19:53.337Z,9.188
2022-09-17T00:20:53.374Z,9.173
2022-09-17T00:21:53.394Z,9.158
2022-09-17T00:22:53.427Z,9.173
2022-09-17T00:23:53.462Z,9.158
2022-09-17T00:24:53.492Z,9.173
2022-09-17T00:25:53.520Z,9.173
2022-09-17T00:26:53.562Z,9.173
2022-09-17T00:27:53.599Z,9.158
2022-09-17T00:28:53.668Z,9.188
2022-09-17T00:29:53.688Z,9.203
2022-09-17T00:30:53.807Z,9.203
2022-09-17T00:31:53.742Z,9.203
2022-09-17T00:32:53.780Z,9.188
2022-09-17T00:33:53.819Z,9.203
2022-09-17T00:34:53.845Z,9.188
2022-09-17T00:35:53.874Z,9.188
2022-09-17T00:36:53.936Z,9.188
2022-09-17T00:37:53.941Z,9.242
2022-09-17T00:38:53.973Z,9.173
2022-09-17T00:39:54.060Z,9.173
2022-09-17T00:40:54.035Z,9.173
2022-09-17T00:41:54.102Z,9.242
2022-09-17T00:42:54.104Z,9.242
2022-09-17T00:43:54.142Z,9.242
2022-09-17T00:44:54.152Z,9.242
2022-09-17T00:45:54.189Z,9.242
2022-09-17T00:46:54.316Z,9.242
2022-09-17T00:47:54.264Z,9.242
2022-09-17T00:48:54.288Z,9.242
2022-09-17T00:49:54.335Z,9.242
2022-09-17T00:50:54.363Z,9.242
2022-09-17T00:51:59.595Z,9.242
2022-09-17T00:52:54.426Z,9.242
2022-09-17T00:53:54.467Z,9.257
2022-09-17T00:54:54.502Z,9.272
2022-09-17T00:55:54.535Z,9.257
2022-09-17T00:56:54.578Z,9.242
2022-09-17T00:57:54.613Z,9.257
2022-09-17T00:58:54.640Z,9.272
2022-09-17T00:59:54.676Z,9.287
2022-09-17T01:00:54.779Z,9.287
2022-09-17T01:01:54.781Z,9.287
2022-09-17T01:02:54.774Z,9.287
2022-09-17T01:03:54.810Z,9.272
2022-09-17T01:04:54.841Z,9.257
2022-09-17T01:05:54.896Z,9.257
2022-09-17T01:06:54.908Z,9.272
2022-09-17T01:07:54.941Z,9.257
2022-09-17T01:08:54.987Z,9.242
2022-09-17T01:09:55.011Z,9.242
2022-09-17T01:10:55.048Z,9.242
2022-09-17T01:11:55.076Z,9.242
2022-09-17T01:12:55.117Z,9.355
2022-09-17T01:13:55.150Z,9.272
2022-09-17T01:14:55.186Z,9.325
2022-09-17T01:15:55.253Z,9.257
2022-09-17T01:16:55.251Z,9.257
2022-09-17T01:17:55.282Z,9.31
2022-09-17T01:18:55.317Z,9.31
2022-09-17T01:19:55.347Z,9.31
2022-09-17T01:20:55.383Z,9.31
2022-09-17T01:21:55.414Z,9.325
2022-09-17T01:22:55.448Z,9.325
2022-09-17T01:23:55.512Z,9.34
2022-09-17T01:24:55.513Z,9.34
2022-09-17T01:25:55.548Z,9.34
2022-09-17T01:26:55.584Z,9.355
2022-09-17T01:27:55.622Z,9.355
2022-09-17T01:28:55.649Z,9.34
2022-09-17T01:29:55.684Z,9.325
2022-09-17T01:30:55.719Z,9.325
2022-09-17T01:31:55.752Z,9.34
2022-09-17T01:32:55.785Z,9.34
2022-09-17T01:33:55.823Z,9.325
2022-09-17T01:34:55.865Z,9.394
2022-09-17T01:35:55.900Z,9.394
2022-09-17T01:36:55.935Z,9.409
2022-09-17T01:37:55.975Z,9.409
2022-09-17T01:38:56.077Z,9.409
2022-09-17T01:39:56.087Z,9.409
2022-09-17T01:40:56.063Z,9.438
2022-09-17T01:41:56.099Z,9.507
2022-09-17T01:42:56.132Z,9.522
2022-09-17T01:43:56.169Z,9.552
2022-09-17T01:44:56.197Z,9.567
2022-09-17T01:45:56.244Z,9.552
2022-09-17T01:46:56.430Z,9.537
2022-09-17T01:47:56.322Z,9.537
2022-09-17T01:48:56.358Z,9.522
2022-09-17T01:49:56.398Z,9.522
2022-09-17T01:50:56.428Z,9.507
2022-09-17T01:51:56.458Z,9.507
2022-09-17T01:52:56.496Z,9.492
2022-09-17T01:53:56.574Z,9.492
2022-09-17T01:54:56.560Z,9.492
2022-09-17T01:55:56.595Z,9.522
2022-09-17T01:56:56.632Z,9.552
2022-09-17T01:57:56.675Z,9.567
2022-09-17T01:58:56.712Z,9.552
2022-09-17T01:59:56.754Z,9.581
2022-09-17T02:00:56.837Z,9.581
2022-09-17T02:01:56.857Z,9.596
2022-09-17T02:02:56.862Z,9.596
2022-09-17T02:03:56.899Z,9.581
2022-09-17T02:04:56.930Z,9.596
2022-09-17T02:05:56.962Z,9.611
2022-09-17T02:06:56.990Z,9.581
2022-09-17T02:07:57.027Z,9.581
2022-09-17T02:08:57.062Z,9.567
2022-09-17T02:09:57.099Z,9.65
2022-09-17T02:10:57.140Z,9.65
2022-09-17T02:11:57.170Z,9.65
2022-09-17T02:12:57.209Z,9.65
2022-09-17T02:13:57.237Z,9.65
2022-09-17T02:14:57.271Z,9.665
2022-09-17T02:15:57.335Z,9.68
2022-09-17T02:16:57.347Z,9.68
2022-09-17T02:17:57.384Z,9.68
2022-09-17T02:18:57.421Z,9.68
2022-09-17T02:19:57.457Z,9.665
2022-09-17T02:20:57.500Z,9.694
2022-09-17T02:21:57.538Z,9.665
2022-09-17T02:22:57.572Z,9.665
2022-09-17T02:23:57.710Z,9.694
2022-09-17T02:24:57.645Z,9.694
2022-09-17T02:25:57.678Z,9.68
2022-09-17T02:26:57.704Z,9.694
2022-09-17T02:27:57.742Z,9.68
2022-09-17T02:28:57.769Z,9.68
2022-09-17T02:29:57.799Z,9.65
2022-09-17T02:30:57.838Z,9.635
2022-09-17T02:31:57.867Z,9.635
2022-09-17T02:32:57.904Z,9.689
2022-09-17T02:33:58.041Z,9.674
2022-09-17T02:34:57.960Z,9.674
2022-09-17T02:35:58.005Z,9.674
2022-09-17T02:36:58.041Z,9.674
2022-09-17T02:37:58.086Z,9.659
2022-09-17T02:38:58.139Z,9.689
2022-09-17T02:39:58.214Z,9.704
2022-09-17T02:40:58.200Z,9.689
2022-09-17T02:41:58.235Z,9.674
2022-09-17T02:42:58.273Z,9.674
2022-09-17T02:43:58.305Z,9.674
2022-09-17T02:44:58.334Z,9.674
2022-09-17T02:45:58.365Z,9.674
2022-09-17T02:46:58.440Z,9.674
2022-09-17T02:47:58.434Z,9.689
2022-09-17T02:48:58.477Z,9.659
2022-09-17T02:49:58.512Z,9.674
2022-09-17T02:50:58.554Z,9.659
2022-09-17T02:51:58.587Z,9.659
2022-09-17T02:52:58.614Z,9.644
2022-09-17T02:53:58.653Z,9.698
2022-09-17T02:54:58.684Z,9.698
2022-09-17T02:55:58.719Z,9.728
2022-09-17T02:56:58.767Z,9.713
2022-09-17T02:57:58.802Z,9.698
2022-09-17T02:58:58.928Z,9.698
2022-09-17T02:59:58.871Z,9.698
2022-09-17T03:00:58.960Z,9.668
2022-09-17T03:01:59.023Z,9.638
2022-09-17T03:02:58.979Z,9.638
2022-09-17T03:03:59.008Z,9.608
2022-09-17T03:04:59.047Z,9.593
2022-09-17T03:05:59.087Z,9.623
2022-09-17T03:06:59.118Z,9.638
2022-09-17T03:07:59.170Z,9.623
2022-09-17T03:08:59.200Z,9.623
2022-09-17T03:09:59.239Z,9.623
2022-09-17T03:10:59.262Z,9.623
2022-09-17T03:11:59.303Z,9.623
2022-09-17T03:12:59.344Z,9.593
2022-09-17T03:13:59.449Z,9.608
2022-09-17T03:14:59.411Z,9.653
2022-09-17T03:15:59.568Z,9.623
2022-09-17T03:16:59.492Z,9.623
2022-09-17T03:17:59.521Z,9.638
2022-09-17T03:18:59.571Z,9.623
2022-09-17T03:19:59.597Z,9.608
2022-09-17T03:20:59.643Z,9.608
2022-09-17T03:21:59.666Z,9.608
2022-09-17T03:22:59.699Z,9.623
2022-09-17T03:23:59.730Z,9.623
2022-09-17T03:24:59.761Z,9.623
2022-09-17T03:25:59.796Z,9.638
2022-09-17T03:26:59.821Z,9.623
2022-09-17T03:27:59.859Z,9.569
2022-09-17T03:28:59.925Z,9.569
2022-09-17T03:29:59.920Z,9.569
2022-09-17T03:31:00.014Z,9.584
2022-09-17T03:31:59.987Z,9.614
2022-09-17T03:33:00.013Z,9.599
2022-09-17T03:34:00.049Z,9.599
2022-09-17T03:35:00.099Z,9.614
2022-09-17T03:36:00.117Z,9.599
2022-09-17T03:37:00.153Z,9.614
2022-09-17T03:38:00.192Z,9.599
2022-09-17T03:39:00.215Z,9.584
2022-09-17T03:40:00.462Z,9.584
2022-09-17T03:41:00.293Z,9.599
2022-09-17T03:42:00.322Z,9.599
2022-09-17T03:43:00.360Z,9.599
2022-09-17T03:44:00.392Z,9.599
2022-09-17T03:45:00.427Z,9.584
2022-09-17T03:46:00.491Z,9.569
2022-09-17T03:47:00.497Z,9.584
2022-09-17T03:48:00.541Z,9.614
2022-09-17T03:49:00.576Z,9.629
2022-09-17T03:50:00.608Z,9.659
2022-09-17T03:51:00.642Z,9.644
2022-09-17T03:52:00.679Z,9.629
2022-09-17T03:53:00.722Z,9.644
2022-09-17T03:54:00.799Z,9.614
2022-09-17T03:55:00.786Z,9.644
2022-09-17T03:56:00.824Z,9.683
2022-09-17T03:57:00.852Z,9.653
2022-09-17T03:58:00.876Z,9.638
2022-09-17T03:59:00.915Z,9.623
2022-09-17T04:00:00.940Z,9.653
2022-09-17T04:01:00.977Z,9.653
2022-09-17T04:02:01.142Z,9.653
2022-09-17T04:03:01.138Z,9.668
2022-09-17T04:04:01.150Z,9.668
2022-09-17T04:05:01.123Z,9.653
2022-09-17T04:06:01.158Z,9.653
2022-09-17T04:07:01.197Z,9.638
2022-09-17T04:08:01.236Z,9.653
2022-09-17T04:09:01.270Z,9.683
2022-09-17T04:10:01.310Z,9.698
2022-09-17T04:11:01.344Z,9.668
2022-09-17T04:12:01.366Z,9.638
2022-09-17T04:13:01.387Z,9.638
2022-09-17T04:14:01.427Z,9.653
2022-09-17T04:15:01.464Z,9.584
2022-09-17T04:16:01.555Z,9.569
2022-09-17T04:17:01.518Z,9.569
2022-09-17T04:18:01.560Z,9.569
2022-09-17T04:19:01.605Z,9.584
2022-09-17T04:20:01.631Z,9.584
2022-09-17T04:21:01.666Z,9.584
2022-09-17T04:22:01.703Z,9.584
2022-09-17T04:23:01.751Z,9.554
2022-09-17T04:24:01.782Z,9.554
2022-09-17T04:25:01.827Z,9.539
2022-09-17T04:26:01.862Z,9.608
2022-09-17T04:27:01.887Z,9.539
2022-09-17T04:28:01.925Z,9.608
2022-09-17T04:29:01.951Z,9.608
2022-09-17T04:30:01.990Z,9.539
2022-09-17T04:31:02.099Z,9.524
2022-09-17T04:32:02.071Z,9.593
2022-09-17T04:33:02.096Z,9.608
2022-09-17T04:34:02.129Z,9.593
2022-09-17T04:35:02.161Z,9.578
2022-09-17T04:36:02.192Z,9.578
2022-09-17T04:37:02.226Z,9.578
2022-09-17T04:38:02.268Z,9.578
2022-09-17T04:39:02.318Z,9.563
2022-09-17T04:40:06.994Z,9.578
2022-09-17T04:41:02.375Z,9.593
2022-09-17T04:42:02.415Z,9.608
2022-09-17T04:43:02.449Z,9.608
2022-09-17T04:44:02.480Z,9.623
2022-09-17T04:45:02.514Z,9.608
2022-09-17T04:46:02.549Z,9.593
2022-09-17T04:47:02.584Z,9.593
2022-09-17T04:48:02.619Z,9.593
2022-09-17T04:49:02.656Z,9.623
2022-09-17T04:50:02.694Z,9.623
2022-09-17T04:51:02.722Z,9.608
2022-09-17T04:52:02.753Z,9.608
2022-09-17T04:53:02.783Z,9.623
2022-09-17T04:54:02.814Z,9.623
2022-09-17T04:55:02.852Z,9.623
2022-09-17T04:56:02.884Z,9.653
2022-09-17T04:57:02.923Z,9.638
2022-09-17T04:58:02.961Z,9.653
2022-09-17T04:59:02.999Z,9.653
2022-09-17T05:00:03.032Z,9.668
2022-09-17T05:01:03.173Z,9.668
2022-09-17T05:02:03.184Z,9.683
2022-09-17T05:03:03.129Z,9.683
2022-09-17T05:04:03.167Z,9.683
2022-09-17T05:05:03.204Z,9.683
2022-09-17T05:06:03.249Z,9.698
2022-09-17T05:07:03.276Z,9.781
2022-09-17T05:08:03.306Z,9.766
2022-09-17T05:09:03.345Z,9.781
2022-09-17T05:10:03.373Z,9.781
2022-09-17T05:11:03.414Z,9.781
2022-09-17T05:12:03.441Z,9.781
2022-09-17T05:13:03.481Z,9.766
2022-09-17T05:14:03.524Z,9.796
2022-09-17T05:15:03.556Z,9.796
2022-09-17T05:16:03.626Z,9.796
2022-09-17T05:17:03.628Z,9.781
2022-09-17T05:18:03.662Z,9.796
2022-09-17T05:19:03.692Z,9.796
2022-09-17T05:20:03.723Z,9.811
2022-09-17T05:21:03.766Z,9.865
2022-09-17T05:22:03.805Z,9.85
2022-09-17T05:23:03.845Z,9.85
2022-09-17T05:24:03.876Z,9.85
2022-09-17T05:25:03.908Z,9.933
2022-09-17T05:26:03.933Z,9.948
2022-09-17T05:27:03.965Z,9.963
2022-09-17T05:28:03.998Z,9.978
2022-09-17T05:29:04.034Z,9.978
2022-09-17T05:30:04.077Z,9.963
2022-09-17T05:31:04.139Z,9.963
2022-09-17T05:32:04.134Z,9.978
2022-09-17T05:33:04.182Z,10.01
2022-09-17T05:34:04.216Z,10.01
2022-09-17T05:35:05.842Z,9.993
2022-09-17T05:36:04.292Z,9.909
2022-09-17T05:37:04.325Z,9.894
2022-09-17T05:38:04.358Z,9.909
2022-09-17T05:39:04.384Z,9.924
2022-09-17T05:40:04.455Z,9.939
2022-09-17T05:41:04.454Z,9.924
2022-09-17T05:42:04.490Z,9.924
2022-09-17T05:43:04.534Z,9.954
2022-09-17T05:44:04.574Z,9.939
2022-09-17T05:45:04.622Z,9.939
2022-09-17T05:46:04.818Z,9.939
2022-09-17T05:47:04.686Z,9.939
2022-09-17T05:48:04.723Z,9.894
2022-09-17T05:49:04.756Z,9.88
2022-09-17T05:50:04.793Z,9.894
2022-09-17T05:51:04.830Z,9.894
2022-09-17T05:52:04.856Z,9.894
2022-09-17T05:53:04.907Z,9.894
2022-09-17T05:54:04.938Z,9.894
2022-09-17T05:55:04.981Z,9.88
2022-09-17T05:56:05.011Z,9.865
2022-09-17T05:57:05.050Z,9.85
2022-09-17T05:58:05.086Z,9.835
2022-09-17T05:59:05.120Z,9.82
2022-09-17T06:00:05.155Z,9.805
2022-09-17T06:01:05.197Z,9.835
2022-09-17T06:02:05.343Z,9.85
2022-09-17T06:03:05.336Z,9.88
2022-09-17T06:04:05.308Z,9.903
2022-09-17T06:05:05.414Z,9.888
2022-09-17T06:06:05.375Z,9.888
2022-09-17T06:07:05.415Z,9.888
2022-09-17T06:08:05.451Z,9.912
2022-09-17T06:09:05.485Z,9.897
2022-09-17T06:10:05.519Z,9.852
2022-09-17T06:11:05.546Z,9.822
2022-09-17T06:12:05.588Z,9.791
2022-09-17T06:13:05.614Z,9.746
2022-09-17T06:14:05.647Z,9.731
2022-09-17T06:15:05.685Z,9.746
2022-09-17T06:16:05.786Z,9.716
2022-09-17T06:17:05.749Z,9.7
2022-09-17T06:18:05.780Z,9.716
2022-09-17T06:19:05.819Z,9.716
2022-09-17T06:20:05.849Z,9.7
2022-09-17T06:21:05.881Z,9.7
2022-09-17T06:22:05.931Z,9.655
2022-09-17T06:23:05.950Z,9.67
2022-09-17T06:24:05.981Z,9.594
2022-09-17T06:25:06.013Z,9.532
2022-09-17T06:26:06.061Z,9.532
2022-09-17T06:27:06.086Z,9.548
2022-09-17T06:28:06.122Z,9.594
2022-09-17T06:29:06.155Z,9.563
2022-09-17T06:30:06.192Z,9.502
2022-09-17T06:31:06.262Z,9.455
2022-09-17T06:32:06.254Z,9.471
2022-09-17T06:33:06.289Z,9.517
2022-09-17T06:34:06.318Z,9.517
2022-09-17T06:35:06.349Z,9.532
2022-09-17T06:36:10.928Z,9.57
2022-09-17T06:37:06.410Z,9.616
2022-09-17T06:38:06.441Z,9.684
2022-09-17T06:39:06.477Z,9.737
2022-09-17T06:40:06.576Z,9.691
2022-09-17T06:41:06.552Z,9.728
2022-09-17T06:42:06.589Z,9.75
2022-09-17T06:43:06.618Z,9.703
2022-09-17T06:44:06.663Z,9.725
2022-09-17T06:45:10.188Z,9.756
2022-09-17T06:46:06.770Z,9.746
2022-09-17T06:47:06.750Z,9.673
2022-09-17T06:48:06.786Z,9.593
2022-09-17T06:49:06.819Z,9.63
2022-09-17T06:50:06.846Z,9.682
2022-09-17T06:51:06.881Z,9.57
2022-09-17T06:52:06.915Z,9.457
2022-09-17T06:53:06.951Z,9.476
2022-09-17T06:54:06.983Z,9.476
2022-09-17T06:55:07.025Z,9.46
2022-09-17T06:56:07.162Z,9.428
2022-09-17T06:57:07.095Z,9.496
2022-09-17T06:58:07.121Z,9.398
2022-09-17T06:59:07.156Z,9.381
2022-09-17T07:00:07.197Z,9.365
2022-09-17T07:01:07.310Z,9.365
2022-09-17T07:02:07.313Z,9.332
2022-09-17T07:03:07.308Z,9.349
2022-09-17T07:04:07.343Z,9.398
2022-09-17T07:05:07.373Z,9.365
2022-09-17T07:06:07.406Z,9.316
2022-09-17T07:07:07.437Z,9.332
2022-09-17T07:08:07.475Z,9.248
2022-09-17T07:09:10.903Z,9.316
2022-09-17T07:10:07.548Z,9.299
2022-09-17T07:11:07.583Z,9.316
2022-09-17T07:12:07.613Z,9.332
2022-09-17T07:13:07.651Z,9.365
2022-09-17T07:14:07.679Z,9.449
2022-09-17T07:15:07.724Z,9.465
2022-09-17T07:16:07.813Z,9.465
2022-09-17T07:17:07.783Z,9.416
2022-09-17T07:18:07.813Z,9.416
2022-09-17T07:19:09.010Z,9.433
2022-09-17T07:20:07.876Z,9.416
2022-09-17T07:21:07.904Z,9.35
2022-09-17T07:22:07.979Z,9.284
2022-09-17T07:23:07.978Z,9.218
2022-09-17T07:24:08.015Z,9.202
2022-09-17T07:25:08.058Z,9.235
2022-09-17T07:26:08.087Z,9.251
2022-09-17T07:27:08.106Z,9.2
2022-09-17T07:28:08.149Z,9.334
2022-09-17T07:29:08.181Z,9.35
2022-09-17T07:30:08.223Z,9.35
2022-09-17T07:31:12.469Z,9.317
2022-09-17T07:32:08.288Z,9.336
2022-09-17T07:33:08.315Z,9.236
2022-09-17T07:34:08.346Z,9.269
2022-09-17T07:35:08.380Z,9.387
2022-09-17T07:36:08.416Z,9.237
2022-09-17T07:37:08.451Z,9.254
2022-09-17T07:38:08.485Z,9.17
2022-09-17T07:39:08.513Z,9.237
2022-09-17T07:40:08.599Z,9.254
2022-09-17T07:41:08.580Z,9.271
2022-09-17T07:42:08.614Z,9.22
2022-09-17T07:43:08.639Z,9.254
2022-09-17T07:44:08.675Z,9.338
2022-09-17T07:45:08.708Z,9.372
2022-09-17T07:46:08.788Z,9.372
2022-09-17T07:47:08.783Z,9.473
2022-09-17T07:48:08.820Z,9.406
2022-09-17T07:49:08.857Z,9.456
2022-09-17T07:50:08.884Z,9.44
2022-09-17T07:51:08.917Z,9.44
2022-09-17T07:52:08.948Z,9.406
2022-09-17T07:53:08.979Z,9.304
2022-09-17T07:54:09.010Z,9.338
2022-09-17T07:55:09.046Z,9.389
2022-09-17T07:56:11.836Z,9.321
2022-09-17T07:57:09.108Z,9.304
2022-09-17T07:58:09.131Z,9.32
2022-09-17T07:59:09.158Z,9.303
2022-09-17T08:00:09.207Z,9.337
2022-09-17T08:01:09.232Z,9.303
2022-09-17T08:02:09.384Z,9.301
2022-09-17T08:03:09.353Z,9.301
2022-09-17T08:04:09.334Z,9.386
2022-09-17T08:05:09.369Z,9.367
2022-09-17T08:06:09.409Z,9.332
2022-09-17T08:07:09.481Z,9.332
2022-09-17T08:08:09.472Z,9.332
2022-09-17T08:09:09.508Z,9.297
2022-09-17T08:10:09.542Z,9.263
2022-09-17T08:11:09.574Z,9.21
2022-09-17T08:12:09.608Z,9.193
2022-09-17T08:13:09.637Z,9.123
2022-09-17T08:14:09.682Z,9.088
2022-09-17T08:15:09.711Z,9.088
2022-09-17T08:16:09.820Z,9.035
2022-09-17T08:17:09.769Z,9.084
2022-09-17T08:18:09.804Z,9.12
2022-09-17T08:19:09.837Z,9.222
2022-09-17T08:20:09.862Z,9.063
2022-09-17T08:21:09.897Z,9.201
2022-09-17T08:22:09.939Z,8.974
2022-09-17T08:23:09.971Z,9.094
2022-09-17T08:24:10.012Z,9.183
2022-09-17T08:25:10.049Z,9.147
2022-09-17T08:26:10.084Z,9.147
2022-09-17T08:27:10.121Z,9.232
2022-09-17T08:28:10.147Z,9.197
2022-09-17T08:29:10.185Z,9.072
2022-09-17T08:30:10.223Z,8.982
2022-09-17T08:31:10.284Z,8.994
2022-09-17T08:32:10.297Z,8.994
2022-09-17T08:33:10.328Z,9.043
2022-09-17T08:34:10.372Z,9.007
2022-09-17T08:35:10.402Z,9.11
2022-09-17T08:36:10.436Z,9.201
2022-09-17T08:37:10.458Z,9.219
2022-09-17T08:38:10.497Z,9.411
2022-09-17T08:39:10.527Z,9.308
2022-09-17T08:40:10.594Z,9.146
2022-09-17T08:41:10.597Z,9.001
2022-09-17T08:42:10.628Z,8.909
2022-09-17T08:43:10.663Z,8.817
2022-09-17T08:44:10.706Z,8.717
2022-09-17T08:45:10.739Z,8.661
2022-09-17T08:46:10.859Z,8.68
2022-09-17T08:47:10.804Z,8.903
2022-09-17T08:48:10.837Z,8.52
2022-09-17T08:49:10.878Z,8.434
2022-09-17T08:50:10.915Z,8.453
2022-09-17T08:51:10.953Z,8.415
2022-09-17T08:52:10.986Z,8.349
2022-09-17T08:53:11.015Z,8.349
2022-09-17T08:54:11.048Z,8.339
2022-09-17T08:55:11.083Z,8.357
2022-09-17T08:56:11.126Z,8.272
2022-09-17T08:57:11.159Z,8.421
2022-09-17T08:58:11.191Z,8.403
2022-09-17T08:59:11.228Z,8.532
2022-09-17T09:00:11.257Z,8.532
2022-09-17T09:01:11.295Z,8.624
2022-09-17T09:02:11.402Z,8.587
2022-09-17T09:03:11.373Z,8.691
2022-09-17T09:04:11.413Z,8.758
2022-09-17T09:05:11.443Z,8.721
2022-09-17T09:06:11.482Z,8.916
2022-09-17T09:07:11.517Z,8.799
2022-09-17T09:08:11.551Z,8.829
2022-09-17T09:09:11.598Z,8.858
2022-09-17T09:10:11.635Z,8.802
2022-09-17T09:11:11.663Z,8.719
2022-09-17T09:12:11.696Z,8.625
2022-09-17T09:13:11.735Z,8.549
2022-09-17T09:14:11.778Z,8.445
2022-09-17T09:15:11.804Z,8.387
2022-09-17T09:16:11.882Z,8.406
2022-09-17T09:17:11.867Z,8.539
2022-09-17T09:18:11.906Z,8.813
2022-09-17T09:19:13.434Z,8.813
2022-09-17T09:20:11.976Z,8.767
2022-09-17T09:21:12.009Z,8.909
2022-09-17T09:22:12.040Z,8.994
2022-09-17T09:23:12.074Z,8.672
2022-09-17T09:24:12.139Z,8.719
2022-09-17T09:25:12.149Z,8.777
2022-09-17T09:26:12.184Z,8.681
2022-09-17T09:27:12.214Z,8.402
2022-09-17T09:28:12.256Z,8.518
2022-09-17T09:29:12.280Z,8.51
2022-09-17T09:30:12.321Z,8.548
2022-09-17T09:31:12.428Z,8.644
2022-09-17T09:32:15.841Z,8.558
2022-09-17T09:33:12.419Z,8.482
2022-09-17T09:34:12.456Z,8.501
2022-09-17T09:35:12.493Z,8.682
2022-09-17T09:36:12.522Z,8.663
2022-09-17T09:37:12.565Z,8.539
2022-09-17T09:38:12.589Z,8.616
2022-09-17T09:39:12.621Z,8.568
2022-09-17T09:40:12.740Z,8.464
2022-09-17T09:41:12.690Z,8.605
2022-09-17T09:42:12.733Z,8.312
2022-09-17T09:43:12.766Z,8.084
2022-09-17T09:44:12.821Z,8.017
2022-09-17T09:45:12.833Z,8.226
2022-09-17T09:46:12.957Z,8.103
2022-09-17T09:47:12.896Z,8.008
2022-09-17T09:48:12.920Z,7.759
2022-09-17T09:49:12.954Z,7.844
2022-09-17T09:50:12.990Z,8.141
2022-09-17T09:51:13.022Z,8.169
2022-09-17T09:52:13.066Z,8.216
2022-09-17T09:53:13.093Z,8.063
2022-09-17T09:54:13.127Z,8.082
2022-09-17T09:55:13.165Z,8.063
2022-09-17T09:56:13.184Z,8.063
2022-09-17T09:57:13.215Z,8.043
2022-09-17T09:58:13.254Z,8.274
2022-09-17T09:59:13.291Z,8.216
2022-09-17T10:00:13.331Z,8.245
2022-09-17T10:01:13.373Z,8.369
2022-09-17T10:02:13.568Z,8.274
2022-09-17T10:03:13.443Z,8.187
2022-09-17T10:04:13.477Z,8.283
2022-09-17T10:05:13.511Z,8.051
2022-09-17T10:06:13.553Z,7.876
2022-09-17T10:07:13.591Z,7.876
2022-09-17T10:08:13.627Z,7.974
2022-09-17T10:09:13.658Z,8.02
2022-09-17T10:10:13.685Z,8.164
2022-09-17T10:11:13.716Z,8.413
2022-09-17T10:12:13.758Z,8.422
2022-09-17T10:13:13.790Z,8.468
2022-09-17T10:14:13.820Z,8.623
2022-09-17T10:15:13.857Z,8.527
2022-09-17T10:16:13.948Z,8.554
2022-09-17T10:17:13.927Z,8.476
2022-09-17T10:18:13.954Z,8.24
2022-09-17T10:19:13.988Z,8.061
2022-09-17T10:20:14.030Z,7.92
2022-09-17T10:21:14.053Z,7.92
2022-09-17T10:22:14.086Z,8.007
2022-09-17T10:23:14.113Z,7.981
2022-09-17T10:24:14.141Z,7.961
2022-09-17T10:25:14.174Z,8.121
2022-09-17T10:26:14.210Z,7.961
2022-09-17T10:27:14.246Z,7.961
2022-09-17T10:28:14.283Z,7.92
2022-09-17T10:29:14.316Z,7.86
2022-09-17T10:30:14.350Z,7.779
2022-09-17T10:31:14.398Z,7.88
2022-09-17T10:32:14.412Z,7.9
2022-09-17T10:33:14.455Z,8.121
2022-09-17T10:34:14.490Z,8.214
2022-09-17T10:35:14.520Z,8.371
2022-09-17T10:36:14.586Z,8.612
2022-09-17T10:37:14.586Z,8.464
2022-09-17T10:38:14.622Z,8.346
2022-09-17T10:39:14.661Z,8.233
2022-09-17T10:40:14.756Z,8.093
2022-09-17T10:41:14.737Z,8.052
2022-09-17T10:42:14.770Z,8.098
2022-09-17T10:43:14.801Z,8.179
2022-09-17T10:44:14.829Z,7.992
2022-09-17T10:45:14.872Z,7.808
2022-09-17T10:46:14.936Z,7.763
2022-09-17T10:47:14.934Z,8.047
2022-09-17T10:48:14.971Z,8.147
2022-09-17T10:49:15.010Z,8.087
2022-09-17T10:50:15.048Z,8.107
2022-09-17T10:51:15.088Z,8.081
2022-09-17T10:52:15.124Z,8.141
2022-09-17T10:53:15.158Z,8.221
2022-09-17T10:54:15.186Z,8.135
2022-09-17T10:55:15.217Z,8.095
2022-09-17T10:56:15.254Z,7.875
2022-09-17T10:57:15.290Z,7.875
2022-09-17T10:58:15.320Z,7.955
2022-09-17T10:59:15.357Z,8.015
2022-09-17T11:00:15.385Z,8.253
2022-09-17T11:01:15.478Z,8.3
2022-09-17T11:02:15.616Z,8.326
2022-09-17T11:03:15.478Z,8.247
2022-09-17T11:04:15.521Z,8.385
2022-09-17T11:05:15.555Z,8.107
2022-09-17T11:06:15.576Z,8.052
2022-09-17T11:07:15.607Z,7.869
2022-09-17T11:08:15.645Z,7.701
2022-09-17T11:09:15.686Z,7.474
2022-09-17T11:10:15.717Z,7.453
2022-09-17T11:11:15.753Z,7.66
2022-09-17T11:12:15.786Z,7.619
2022-09-17T11:13:15.820Z,7.722
2022-09-17T11:14:15.858Z,7.758
2022-09-17T11:15:15.888Z,7.717
2022-09-17T11:16:15.994Z,7.738
2022-09-17T11:17:15.959Z,7.895
2022-09-17T11:18:15.988Z,7.935
2022-09-17T11:19:16.021Z,8.035
2022-09-17T11:20:16.055Z,7.875
2022-09-17T11:21:16.090Z,7.875
2022-09-17T11:22:16.124Z,8.081
2022-09-17T11:23:16.148Z,8.181
2022-09-17T11:24:16.178Z,8.227
2022-09-17T11:25:16.216Z,8.173
2022-09-17T11:26:16.253Z,8.239
2022-09-17T11:27:16.285Z,7.919
2022-09-17T11:28:16.319Z,7.964
2022-09-17T11:29:16.357Z,7.84
2022-09-17T11:30:16.457Z,7.632
2022-09-17T11:31:20.433Z,7.739
2022-09-17T11:32:16.454Z,7.885
2022-09-17T11:33:16.495Z,7.592
2022-09-17T11:34:16.536Z,7.844
2022-09-17T11:35:16.565Z,7.463
2022-09-17T11:36:16.603Z,7.653
2022-09-17T11:37:16.638Z,7.378
2022-09-17T11:38:16.676Z,7.378
2022-09-17T11:39:16.707Z,7.379
2022-09-17T11:40:16.856Z,7.443
2022-09-17T11:41:16.782Z,7.676
2022-09-17T11:42:16.816Z,7.679
2022-09-17T11:43:16.848Z,7.594
2022-09-17T11:44:16.885Z,7.681
2022-09-17T11:45:16.916Z,7.445
2022-09-17T11:46:17.010Z,7.424
2022-09-17T11:47:16.987Z,7.38
2022-09-17T11:48:17.176Z,7.272
2022-09-17T11:49:17.052Z,7.443
2022-09-17T11:50:17.085Z,7.592
2022-09-17T11:51:17.122Z,7.721
2022-09-17T11:52:17.149Z,7.551
2022-09-17T11:53:17.182Z,7.38
2022-09-17T11:54:17.207Z,7.315
2022-09-17T11:55:17.252Z,7.487
2022-09-17T11:56:17.286Z,7.615
2022-09-17T11:57:17.318Z,7.805
2022-09-17T11:58:17.355Z,7.805
2022-09-17T11:59:17.384Z,7.968
2022-09-17T12:00:17.421Z,7.757
2022-09-17T12:01:17.452Z,7.96
2022-09-17T12:02:17.533Z,8.001
2022-09-17T12:03:17.596Z,7.997
2022-09-17T12:04:17.559Z,8.072
2022-09-17T12:05:17.594Z,8.213
2022-09-17T12:06:17.625Z,8.306
2022-09-17T12:07:17.659Z,8.001
2022-09-17T12:08:17.691Z,8.221
2022-09-17T12:09:17.723Z,8.174
2022-09-17T12:10:17.753Z,8.233
2022-09-17T12:11:17.786Z,8.246
2022-09-17T12:12:37.981Z,8.422
2022-09-17T12:13:17.847Z,8.239
2022-09-17T12:14:17.885Z,8.491
2022-09-17T12:15:17.930Z,8.433
2022-09-17T12:16:18.014Z,8.413
2022-09-17T12:17:18.007Z,8.529
2022-09-17T12:18:31.650Z,8.433
2022-09-17T12:19:18.068Z,8.529
2022-09-17T12:20:18.102Z,8.777
2022-09-17T12:21:18.136Z,8.336
2022-09-17T12:22:18.167Z,8.375
2022-09-17T12:23:18.197Z,8.219
2022-09-17T12:24:18.228Z,8.121
2022-09-17T12:25:18.267Z,8.035
2022-09-17T12:26:18.301Z,8.015
2022-09-17T12:27:18.329Z,7.976
2022-09-17T12:28:18.374Z,7.976
2022-09-17T12:29:18.409Z,8.133
2022-09-17T12:30:22.562Z,7.963
2022-09-17T12:31:18.517Z,7.581
2022-09-17T12:32:18.505Z,7.211
2022-09-17T12:33:18.543Z,7.107
2022-09-17T12:34:18.579Z,6.96
2022-09-17T12:35:18.614Z,6.683
2022-09-17T12:36:18.651Z,6.576
2022-09-17T12:37:18.685Z,6.683
2022-09-17T12:38:18.720Z,6.854
2022-09-17T12:39:18.751Z,6.854
2022-09-17T12:40:18.842Z,6.79
2022-09-17T12:41:18.821Z,6.747
2022-09-17T12:42:18.861Z,6.662
2022-09-17T12:43:18.898Z,6.726
2022-09-17T12:44:18.929Z,6.511
2022-09-17T12:45:18.958Z,6.445
2022-09-17T12:46:19.114Z,6.201
2022-09-17T12:47:19.033Z,6.246
2022-09-17T12:48:19.059Z,6.266
2022-09-17T12:49:19.096Z,6.289
2022-09-17T12:50:19.120Z,6.465
2022-09-17T12:51:19.154Z,6.376
2022-09-17T12:52:19.184Z,6.284
2022-09-17T12:53:19.211Z,6.284
2022-09-17T12:54:19.243Z,6.058
2022-09-17T12:55:19.292Z,6.172
2022-09-17T12:56:19.316Z,6.016